Time;durP1;ratioP1;P1;durP2;ratioP2;P2;SDS_P1;SDS_P2;PMS_P1;PMS_P2;Temp;Humidity;BMP_temperature;BMP_pressure;BME280_temperature;BME280_humidity;BME280_pressure;Samples;Min_cycle;Max_cycle;Signal;HPM_P1;HPM_P2
2023/03/17 00:00:51;;;;;;;54.47;24.80;;;;;;;5.67;46.86;100885.91;5017958;28;100825;-90
2023/03/17 00:03:28;;;;;;;53.93;26.50;;;;;;;5.71;46.70;100885.88;5018336;28;97857;-90
2023/03/17 00:05:56;;;;;;;51.53;24.97;;;;;;;5.41;46.69;100839.13;5018103;28;97141;-90
2023/03/17 00:08:24;;;;;;;54.40;24.17;;;;;;;5.42;46.41;100853.03;5018084;28;96993;-90
2023/03/17 00:10:50;;;;;;;50.27;22.90;;;;;;;5.28;47.01;100833.97;5035028;28;98449;-91
2023/03/17 00:13:16;;;;;;;52.30;22.73;;;;;;;5.24;47.13;100848.75;5035156;28;98409;-90
2023/03/17 00:15:43;;;;;;;55.50;23.83;;;;;;;4.97;47.52;100823.66;5017997;28;96751;-89
2023/03/17 00:18:16;;;;;;;53.10;23.37;;;;;;;4.90;47.51;100804.63;4985507;28;96934;-90
2023/03/17 00:20:42;;;;;;;54.87;24.47;;;;;;;5.23;47.06;100844.41;5017084;28;101151;-90
2023/03/17 00:23:14;;;;;;;52.23;23.90;;;;;;;5.02;47.32;100802.84;5014381;27;100923;-90
2023/03/17 00:25:47;;;;;;;51.33;23.98;;;;;;;5.42;46.98;100868.66;5021322;27;96688;-90
2023/03/17 00:28:19;;;;;;;46.90;22.37;;;;;;;5.32;47.41;100875.59;5022262;27;96695;-90
2023/03/17 00:30:48;;;;;;;50.40;22.97;;;;;;;5.28;47.26;100862.63;5004794;27;100632;-91
2023/03/17 00:33:15;;;;;;;50.77;23.23;;;;;;;5.25;47.08;100847.88;5022154;28;101278;-90
2023/03/17 00:35:41;;;;;;;47.80;22.27;;;;;;;5.35;46.69;100862.59;5016969;28;96796;-90
2023/03/17 00:38:14;;;;;;;49.30;21.77;;;;;;;5.31;47.23;100863.47;5005872;28;96872;-90
2023/03/17 00:40:40;;;;;;;45.30;19.90;;;;;;;5.43;47.29;100870.34;5000742;28;100046;-91
2023/03/17 00:43:07;;;;;;;50.20;20.80;;;;;;;5.36;47.28;100873.88;5017541;28;101077;-89
2023/03/17 00:45:35;;;;;;;45.97;20.33;;;;;;;5.37;47.45;100870.38;5018342;28;96727;-90
2023/03/17 00:48:02;;;;;;;45.30;21.40;;;;;;;5.33;47.29;100846.13;5001078;28;96896;-90
2023/03/17 00:50:28;;;;;;;48.80;21.80;;;;;;;5.41;47.30;100859.06;5017428;28;98074;-90
2023/03/17 00:52:56;;;;;;;48.50;20.03;;;;;;;5.42;47.03;100856.47;5017143;28;98653;-90
2023/03/17 00:55:27;;;;;;;41.47;19.93;;;;;;;5.45;47.19;100848.66;5001088;28;96652;-90
2023/03/17 00:57:53;;;;;;;40.57;18.47;;;;;;;5.12;46.85;100792.41;4996898;28;96947;-90
2023/03/17 01:00:21;;;;;;;46.10;19.37;;;;;;;5.39;47.26;100840.88;4980721;28;98322;-90
2023/03/17 01:02:49;;;;;;;43.43;19.33;;;;;;;5.23;47.45;100831.38;4997426;28;102397;-91
2023/03/17 01:05:16;;;;;;;42.80;19.63;;;;;;;4.89;47.87;100787.28;4967134;28;96766;-91
2023/03/17 01:07:46;;;;;;;40.67;18.07;;;;;;;5.09;47.75;100818.44;4993029;28;96900;-92
2023/03/17 01:10:15;;;;;;;43.80;18.40;;;;;;;4.77;48.26;100771.72;5012656;28;97988;-90
2023/03/17 01:12:41;;;;;;;40.50;19.47;;;;;;;4.83;48.94;100820.25;4984857;28;100400;-94
2023/03/17 01:15:08;;;;;;;46.27;19.00;;;;;;;4.82;48.55;100821.97;4980261;28;96703;-91
2023/03/17 01:17:33;;;;;;;41.77;18.40;;;;;;;4.80;48.99;100789.94;4980583;28;96695;-91
2023/03/17 01:19:59;;;;;;;44.53;19.83;;;;;;;4.74;48.76;100785.59;5015395;28;101566;-91
2023/03/17 01:22:24;;;;;;;46.40;20.10;;;;;;;4.49;48.99;100752.72;5004362;28;98209;-91
2023/03/17 01:24:50;;;;;;;47.03;19.10;;;;;;;4.51;49.30;100756.19;5010840;28;96879;-90
2023/03/17 01:27:17;;;;;;;40.93;18.23;;;;;;;4.40;49.38;100745.81;4980481;28;96923;-90
2023/03/17 01:29:43;;;;;;;44.43;19.70;;;;;;;4.60;49.17;100779.56;5010726;28;98508;-91
2023/03/17 01:32:09;;;;;;;43.70;18.43;;;;;;;4.74;49.34;100803.81;4979972;28;101368;-91
2023/03/17 01:34:35;;;;;;;50.40;20.23;;;;;;;4.62;49.27;100776.94;4996881;28;96721;-90
2023/03/17 01:37:01;;;;;;;38.47;18.50;;;;;;;4.70;48.81;100765.66;5018748;28;96812;-90
2023/03/17 01:39:27;;;;;;;41.97;18.03;;;;;;;4.94;48.61;100795.91;5017984;28;97888;-90
2023/03/17 01:41:55;;;;;;;40.70;17.67;;;;;;;4.98;48.93;100776.00;5016144;28;101284;-91
2023/03/17 01:44:22;;;;;;;43.83;19.20;;;;;;;5.11;48.85;100789.81;4989817;28;96734;-90
2023/03/17 01:46:49;;;;;;;39.97;17.40;;;;;;;5.12;48.70;100795.00;4991264;28;96840;-91
2023/03/17 01:49:37;;;;;;;39.67;19.00;;;;;;;5.21;48.88;100788.91;4995781;28;101039;-90
2023/03/17 01:52:13;;;;;;;35.93;16.50;;;;;;;5.09;48.58;100787.22;4976615;28;101150;-91
2023/03/17 01:54:42;;;;;;;41.07;17.23;;;;;;;4.92;48.97;100758.66;4994117;28;97059;-91
2023/03/17 01:57:16;;;;;;;39.37;15.57;;;;;;;4.94;48.71;100766.44;5008002;28;97055;-90
2023/03/17 02:00:04;;;;;;;34.40;15.93;;;;;;;4.79;49.00;100779.50;4998291;28;100192;-90
2023/03/17 02:02:40;;;;;;;38.53;15.50;;;;;;;4.77;49.39;100779.53;5017184;28;97826;-90
2023/03/17 02:05:09;;;;;;;31.27;15.33;;;;;;;4.84;49.16;100796.84;5002784;28;97075;-90
2023/03/17 02:07:36;;;;;;;38.30;16.97;;;;;;;4.66;49.19;100756.16;5008253;28;96937;-91
2023/03/17 02:10:04;;;;;;;35.20;17.13;;;;;;;4.74;49.25;100748.31;4993352;28;100900;-90
2023/03/17 02:12:29;;;;;;;40.67;17.77;;;;;;;4.98;48.87;100774.25;5019450;28;100945;-90
2023/03/17 02:14:56;;;;;;;36.03;16.20;;;;;;;5.01;49.07;100775.97;4986436;28;97151;-90
2023/03/17 02:17:24;;;;;;;39.67;16.90;;;;;;;4.97;49.05;100774.25;5003352;28;96647;-91
2023/03/17 02:19:50;;;;;;;37.23;16.17;;;;;;;4.83;49.04;100743.09;5019839;28;101824;-90
2023/03/17 02:22:17;;;;;;;39.37;16.27;;;;;;;4.80;48.98;100729.22;5003413;28;101133;-90
2023/03/17 02:24:48;;;;;;;35.07;15.60;;;;;;;4.89;48.89;100739.59;5019381;28;96614;-90
2023/03/17 02:31:03;;;;;;;35.20;15.77;;;;;;;4.94;48.90;100740.44;5016232;28;97011;-90
2023/03/17 02:33:29;;;;;;;31.37;14.37;;;;;;;4.86;48.96;100756.09;5003218;28;101685;-90
2023/03/17 02:35:55;;;;;;;29.80;13.27;;;;;;;4.57;50.20;100740.56;5037693;28;96734;-90
2023/03/17 02:38:21;;;;;;;36.07;14.43;;;;;;;4.64;50.05;100750.06;5016313;28;96829;-91
2023/03/17 02:40:47;;;;;;;32.30;14.17;;;;;;;4.44;50.32;100741.47;5002335;28;101578;-90
2023/03/17 02:43:13;;;;;;;37.77;14.80;;;;;;;4.24;50.44;100718.97;4999099;28;101519;-90
2023/03/17 02:45:40;;;;;;;29.47;14.07;;;;;;;4.59;50.33;100758.75;4999496;28;96665;-90
2023/03/17 02:48:06;;;;;;;30.13;14.13;;;;;;;4.67;50.45;100772.63;4998919;28;97012;-90
2023/03/17 02:50:31;;;;;;;33.03;15.00;;;;;;;4.58;50.10;100744.91;5006503;28;99899;-91
2023/03/17 02:52:57;;;;;;;37.63;14.20;;;;;;;4.28;50.24;100694.72;4984961;27;99838;-91
2023/03/17 02:55:22;;;;;;;28.97;13.17;;;;;;;4.47;50.46;100744.91;5012866;28;96711;-90
2023/03/17 02:57:48;;;;;;;25.90;12.30;;;;;;;4.19;50.51;100701.66;5002020;28;97235;-90
2023/03/17 03:00:14;;;;;;;30.57;13.00;;;;;;;4.15;50.59;100677.41;5018978;28;99772;-90
2023/03/17 03:02:40;;;;;;;33.87;13.67;;;;;;;4.68;50.46;100764.81;5001145;28;101244;-91
2023/03/17 03:05:07;;;;;;;27.43;12.90;;;;;;;4.23;50.07;100693.00;5018956;28;96997;-91
2023/03/17 03:07:33;;;;;;;27.53;12.67;;;;;;;4.44;50.30;100723.25;5019264;28;96815;-91
2023/03/17 03:09:58;;;;;;;28.43;12.37;;;;;;;4.65;50.19;100756.13;5018117;28;101392;-90
2023/03/17 03:12:24;;;;;;;29.03;13.83;;;;;;;4.32;50.42;100711.16;5014569;28;101982;-91
2023/03/17 03:14:50;;;;;;;30.20;12.17;;;;;;;4.55;50.26;100763.09;5017733;28;96985;-96
2023/03/17 03:17:15;;;;;;;26.33;11.73;;;;;;;4.03;50.58;100672.25;5018381;28;96790;-91
2023/03/17 03:19:42;;;;;;;29.00;11.77;;;;;;;4.34;50.72;100748.44;5017581;28;99973;-90
2023/03/17 03:22:07;;;;;;;26.90;11.90;;;;;;;4.08;51.19;100712.94;4998091;28;101470;-91
2023/03/17 03:24:33;;;;;;;25.30;12.03;;;;;;;3.86;51.15;100677.47;5019442;28;96744;-91
2023/03/17 03:26:59;;;;;;;27.77;11.97;;;;;;;4.25;51.06;100736.31;5001847;28;96724;-90
2023/03/17 03:29:25;;;;;;;25.37;11.17;;;;;;;4.26;51.15;100734.56;4981392;28;99945;-90
2023/03/17 03:31:50;;;;;;;24.53;11.03;;;;;;;4.11;51.14;100717.28;4989379;28;101789;-92
2023/03/17 03:34:16;;;;;;;22.97;11.07;;;;;;;4.16;51.58;100751.03;5018279;28;96666;-91
2023/03/17 03:36:41;;;;;;;26.47;10.93;;;;;;;4.08;51.64;100746.72;5018792;28;96832;-90
2023/03/17 03:39:07;;;;;;;32.30;11.43;;;;;;;3.73;52.31;100723.34;5017143;28;99862;-90
2023/03/17 03:41:33;;;;;;;25.80;11.37;;;;;;;3.76;52.54;100731.13;5019514;27;100977;-91
2023/03/17 03:43:59;;;;;;;30.60;11.33;;;;;;;3.71;52.31;100706.91;5028250;28;96691;-90
2023/03/17 03:47:07;;;;;;;20.23;10.17;;;;;;;3.96;52.22;100727.69;4984815;28;96738;-92
2023/03/17 03:49:33;;;;;;;23.10;9.77;;;;;;;3.90;52.10;100705.19;5000896;28;100251;-91
2023/03/17 03:51:59;;;;;;;22.00;10.67;;;;;;;4.05;52.17;100730.28;5017856;28;101511;-90
2023/03/17 03:54:24;;;;;;;20.57;9.60;;;;;;;4.05;52.14;100731.13;5010166;28;96825;-90
2023/03/17 03:56:50;;;;;;;23.50;9.63;;;;;;;3.91;52.43;100716.44;5002849;28;96922;-91
2023/03/17 03:59:16;;;;;;;18.57;8.87;;;;;;;3.81;52.36;100710.34;5000646;28;100931;-90
2023/03/17 04:01:41;;;;;;;27.93;10.10;;;;;;;3.81;52.40;100715.53;5000889;28;101663;-90
2023/03/17 04:04:07;;;;;;;20.63;9.93;;;;;;;3.67;52.35;100680.94;4997489;28;96600;-90
2023/03/17 04:06:32;;;;;;;21.57;9.33;;;;;;;3.70;52.25;100699.97;5009000;28;96915;-90
2023/03/17 04:08:58;;;;;;;21.30;9.47;;;;;;;3.86;52.45;100725.06;5001147;28;101690;-90
2023/03/17 04:11:24;;;;;;;17.97;9.03;;;;;;;3.99;52.37;100728.53;5001222;28;101154;-90
2023/03/17 04:13:50;;;;;;;23.07;8.83;;;;;;;3.93;52.24;100714.69;5035093;28;96706;-91
2023/03/17 04:16:15;;;;;;;18.67;9.17;;;;;;;3.82;52.30;100704.31;5001517;28;96798;-90
2023/03/17 04:18:41;;;;;;;19.53;8.37;;;;;;;3.91;52.16;100719.03;5013138;27;101199;-92
2023/03/17 04:21:07;;;;;;;21.17;8.57;;;;;;;3.52;52.18;100648.03;5034873;28;101593;-92
2023/03/17 04:23:33;;;;;;;23.03;8.80;;;;;;;3.56;52.93;100671.41;5010890;28;96557;-92
2023/03/17 04:25:58;;;;;;;22.70;9.73;;;;;;;3.68;52.27;100695.66;5016117;28;96611;-90
2023/03/17 04:28:24;;;;;;;22.73;10.03;;;;;;;3.66;52.84;100697.38;5017169;28;100349;-91
2023/03/17 04:30:50;;;;;;;15.53;8.83;;;;;;;3.62;53.24;100710.34;5001927;28;98266;-91
2023/03/17 04:33:16;;;;;;;25.07;9.97;;;;;;;3.18;53.37;100619.50;4999570;28;96736;-91
2023/03/17 04:35:42;;;;;;;23.60;9.57;;;;;;;3.67;52.64;100712.09;5001622;28;96748;-90
2023/03/17 04:38:10;;;;;;;23.27;10.03;;;;;;;3.56;53.14;100720.75;5001508;28;100708;-90
2023/03/17 04:40:36;;;;;;;33.40;12.27;;;;;;;3.49;53.42;100719.00;5000683;28;100126;-90
2023/03/17 04:43:01;;;;;;;20.40;9.47;;;;;;;3.14;53.32;100670.53;4998779;28;96775;-90
2023/03/17 04:45:27;;;;;;;23.13;10.27;;;;;;;3.41;53.67;100725.91;4992782;28;96689;-92
2023/03/17 04:47:57;;;;;;;19.70;8.80;;;;;;;3.12;53.42;100663.59;4998664;28;98466;-91
2023/03/17 04:50:23;;;;;;;27.83;10.87;;;;;;;3.48;53.44;100713.81;4981069;28;101342;-90
2023/03/17 04:52:48;;;;;;;22.97;9.80;;;;;;;3.49;53.37;100707.75;5010209;28;96855;-90
2023/03/17 04:55:14;;;;;;;25.30;9.80;;;;;;;3.30;53.25;100689.56;5014933;28;96931;-90
2023/03/17 04:57:40;;;;;;;20.37;10.13;;;;;;;3.30;53.25;100699.94;4997033;28;101423;-90
2023/03/17 05:00:06;;;;;;;25.30;10.40;;;;;;;3.30;53.29;100694.75;4997102;28;101610;-90
2023/03/17 05:02:32;;;;;;;25.53;10.30;;;;;;;3.46;53.10;100721.59;4998031;28;96699;-90
2023/03/17 05:04:58;;;;;;;30.03;10.30;;;;;;;3.35;53.73;100715.53;5000495;28;96815;-90
2023/03/17 05:07:26;;;;;;;26.43;10.63;;;;;;;2.87;54.12;100652.28;5001113;28;101555;-91
2023/03/17 05:09:52;;;;;;;25.43;10.97;;;;;;;3.17;54.04;100711.13;5000884;28;101523;-90
2023/03/17 05:12:17;;;;;;;24.77;11.07;;;;;;;2.88;54.04;100664.38;5000644;28;96806;-90
2023/03/17 05:14:43;;;;;;;22.27;11.10;;;;;;;2.95;54.13;100681.69;4997655;28;96865;-90
2023/03/17 05:17:09;;;;;;;23.83;10.43;;;;;;;3.09;54.56;100726.69;4996901;28;98154;-90
2023/03/17 05:19:34;;;;;;;22.33;10.70;;;;;;;3.10;54.19;100720.66;4997520;28;98466;-90
2023/03/17 05:22:00;;;;;;;23.53;10.60;;;;;;;3.06;54.38;100713.72;5007270;28;96736;-92
2023/03/17 05:24:26;;;;;;;25.27;10.43;;;;;;;2.85;54.81;100704.16;5000566;28;96829;-91
2023/03/17 05:26:51;;;;;;;26.37;10.40;;;;;;;2.69;54.45;100672.09;4983837;28;101043;-91
2023/03/17 05:29:17;;;;;;;28.03;10.50;;;;;;;2.85;54.86;100688.59;5000731;28;98296;-92
2023/03/17 05:31:43;;;;;;;23.60;10.47;;;;;;;2.88;54.46;100670.47;5000547;28;96656;-91
2023/03/17 05:34:08;;;;;;;21.53;9.70;;;;;;;2.99;54.40;100692.94;5000544;28;96858;-90
2023/03/17 05:36:35;;;;;;;23.83;10.97;;;;;;;2.76;54.55;100649.66;5000078;28;100711;-90
2023/03/17 05:39:02;;;;;;;29.60;10.50;;;;;;;3.04;54.22;100689.50;5000425;28;100005;-89
2023/03/17 05:41:33;;;;;;;21.53;9.53;;;;;;;2.94;54.65;100711.97;5016968;28;96611;-90
2023/03/17 05:43:59;;;;;;;22.03;9.37;;;;;;;2.66;54.48;100640.13;5001414;28;96733;-91
2023/03/17 05:49:51;;;;;;;21.87;10.43;;;;;;;3.11;54.50;100695.56;5037076;28;101468;-90
2023/03/17 05:52:17;;;;;;;23.27;10.00;;;;;;;3.16;54.53;100699.03;5004025;28;96629;-90
2023/03/17 05:54:43;;;;;;;24.13;11.03;;;;;;;3.12;54.33;100718.06;5003608;28;96690;-90
2023/03/17 05:57:09;;;;;;;25.27;11.23;;;;;;;3.20;54.46;100703.41;5003085;28;101654;-90
2023/03/17 05:59:35;;;;;;;22.77;11.13;;;;;;;3.16;54.24;100696.44;5003240;28;101703;-90
2023/03/17 06:02:01;;;;;;;27.33;11.33;;;;;;;3.25;54.35;100719.81;5015117;28;96728;-90
2023/03/17 06:04:27;;;;;;;23.87;11.03;;;;;;;3.35;54.21;100713.78;4982474;28;98530;-91
2023/03/17 06:06:53;;;;;;;23.90;10.10;;;;;;;3.38;53.92;100694.78;5015164;28;100410;-90
2023/03/17 06:09:18;;;;;;;31.47;12.90;;;;;;;3.47;53.92;100689.59;5025132;28;97338;-91
2023/03/17 06:11:44;;;;;;;26.30;11.10;;;;;;;3.42;53.42;100654.09;5019644;28;96792;-91
2023/03/17 06:14:10;;;;;;;30.00;11.57;;;;;;;3.83;53.38;100711.22;5002708;28;96981;-90
2023/03/17 06:16:35;;;;;;;29.20;12.63;;;;;;;4.00;53.22;100717.28;5027781;27;97462;-90
2023/03/17 06:19:01;;;;;;;27.77;12.40;;;;;;;4.07;52.66;100708.63;5052306;27;101387;-93
2023/03/17 06:21:27;;;;;;;30.30;12.13;;;;;;;4.12;52.66;100699.94;5053045;27;96697;-90
2023/03/17 06:23:53;;;;;;;27.83;12.00;;;;;;;4.16;52.25;100684.34;5039640;27;96938;-91
2023/03/17 06:26:18;;;;;;;30.63;12.73;;;;;;;4.23;51.86;100682.59;4996900;28;101261;-91
2023/03/17 06:28:44;;;;;;;28.27;11.30;;;;;;;4.33;51.92;100694.69;4999849;28;101585;-90
2023/03/17 06:31:09;;;;;;;25.83;12.20;;;;;;;4.38;51.59;100712.88;5016961;28;96719;-91
2023/03/17 06:33:35;;;;;;;34.17;14.07;;;;;;;4.09;51.55;100669.63;4996955;28;96857;-91
2023/03/17 06:36:02;;;;;;;35.70;14.50;;;;;;;4.51;51.67;100707.66;4992199;28;99176;-91
2023/03/17 06:38:27;;;;;;;28.90;14.00;;;;;;;4.41;51.08;100659.16;4996834;28;101817;-91
2023/03/17 06:40:53;;;;;;;31.23;14.37;;;;;;;4.63;50.71;100695.50;5010421;28;96981;-92
2023/03/17 06:43:18;;;;;;;33.07;15.43;;;;;;;4.80;50.46;100718.81;5017936;28;96886;-91
2023/03/17 06:45:45;;;;;;;36.70;15.40;;;;;;;4.60;50.27;100674.69;4984265;28;101535;-91
2023/03/17 06:48:11;;;;;;;36.60;14.70;;;;;;;4.77;50.30;100711.91;4988232;27;99611;-90
2023/03/17 06:50:36;;;;;;;30.90;16.23;;;;;;;4.73;50.70;100718.84;5003292;28;96971;-91
2023/03/17 06:53:02;;;;;;;38.33;16.40;;;;;;;4.53;50.44;100671.22;5019118;28;96842;-91
2023/03/17 06:55:28;;;;;;;37.27;16.23;;;;;;;4.74;50.53;100694.56;5001308;28;98942;-90
2023/03/17 06:57:53;;;;;;;37.03;15.37;;;;;;;4.81;50.19;100663.34;5017202;28;101499;-91
2023/03/17 07:00:19;;;;;;;36.77;16.83;;;;;;;5.08;50.15;100673.56;5017167;28;96947;-92
2023/03/17 07:02:46;;;;;;;33.40;15.07;;;;;;;5.15;49.68;100680.50;5001097;28;96812;-90
2023/03/17 07:05:12;;;;;;;33.37;15.50;;;;;;;5.35;49.82;100697.69;5016657;28;100498;-90
2023/03/17 07:07:39;;;;;;;35.03;16.20;;;;;;;5.46;49.71;100695.88;5017104;28;101171;-92
2023/03/17 07:10:05;;;;;;;39.67;16.80;;;;;;;5.38;49.45;100689.84;5014278;28;96714;-91
2023/03/17 07:12:31;;;;;;;32.57;15.63;;;;;;;5.58;49.53;100700.13;5000541;27;96890;-90
2023/03/17 07:14:58;;;;;;;37.07;16.53;;;;;;;5.58;49.12;100697.53;5024959;28;100249;-91
2023/03/17 07:17:24;;;;;;;36.93;16.07;;;;;;;5.62;49.54;100712.28;5017032;28;98330;-91
2023/03/17 07:19:51;;;;;;;35.37;17.17;;;;;;;5.63;49.43;100667.97;5000362;28;96672;-90
2023/03/17 07:22:16;;;;;;;36.37;17.30;;;;;;;6.10;48.94;100712.75;5031738;27;96782;-92
2023/03/17 07:24:43;;;;;;;45.33;17.43;;;;;;;5.70;48.99;100657.50;5017867;28;101144;-90
2023/03/17 07:27:09;;;;;;;39.50;18.70;;;;;;;6.00;48.68;100712.00;5000744;28;100998;-90
2023/03/17 07:29:35;;;;;;;33.33;16.47;;;;;;;6.05;48.58;100709.31;5013920;28;96777;-90
2023/03/17 07:32:01;;;;;;;34.40;16.10;;;;;;;5.96;48.93;100660.75;4981918;28;97201;-91
2023/03/17 07:34:27;;;;;;;35.13;16.63;;;;;;;6.48;48.42;100691.50;4999093;28;98418;-90
2023/03/17 07:36:52;;;;;;;38.30;17.27;;;;;;;6.56;47.95;100700.09;5001147;28;100273;-90
2023/03/17 07:39:18;;;;;;;34.63;17.53;;;;;;;6.54;48.08;100681.03;5017376;28;96729;-90
2023/03/17 07:41:45;;;;;;;38.87;16.93;;;;;;;6.69;47.49;100664.31;5017606;28;97056;-90
2023/03/17 09:49:00;;;;;;;11.80;6.73;;;;;;;14.31;33.83;100626.09;6162214;22;1415780;-88
2023/03/17 09:51:27;;;;;;;11.07;6.07;;;;;;;14.27;33.96;100613.94;6222862;22;101522;-88
2023/03/17 10:02:00;;;;;;;14.93;5.63;;;;;;;14.60;32.32;100611.59;6127140;23;96631;-88
2023/03/17 10:08:55;;;;;;;11.25;5.20;;;;;;;13.87;32.93;100607.75;6129160;22;96919;-87
2023/03/17 10:11:26;;;;;;;13.10;5.40;;;;;;;13.94;32.53;100590.75;6080645;23;96613;-87
2023/03/17 10:14:01;;;;;;;10.18;4.15;;;;;;;13.43;32.42;100615.78;6109164;23;96608;-88
2023/03/17 10:20:34;;;;;;;7.45;3.85;;;;;;;13.45;32.96;100589.34;6128741;22;96673;-88
2023/03/17 10:27:33;;;;;;;14.98;6.40;;;;;;;13.57;32.45;100589.69;6129944;22;96646;-88
2023/03/17 10:34:12;;;;;;;7.95;4.30;;;;;;;13.21;31.99;100601.75;6167676;22;96684;-88
2023/03/17 10:36:50;;;;;;;;;;;;;;;12.75;33.46;100591.22;6223196;22;96628;-89
2023/03/17 10:39:18;;;;;;;10.68;4.38;;;;;;;12.60;34.42;100587.41;6221843;22;96857;-89
2023/03/17 10:41:54;;;;;;;14.70;6.80;;;;;;;12.39;34.19;100561.88;6222085;22;101336;-89
2023/03/17 10:44:44;;;;;;;15.48;5.05;;;;;;;12.28;32.45;100599.16;6197062;22;101571;-89
2023/03/17 10:47:20;;;;;;;12.35;4.45;;;;;;;12.17;33.02;100602.16;6223324;22;96559;-89
2023/03/17 10:49:46;;;;;;;11.82;5.82;;;;;;;12.09;33.55;100588.41;6197029;22;96787;-88
2023/03/17 10:52:19;;;;;;;7.82;4.13;;;;;;;11.89;34.44;100586.50;6222451;22;98485;-88
2023/03/17 10:54:51;;;;;;;9.63;4.78;;;;;;;11.81;33.40;100553.44;6221798;22;99464;-89
2023/03/17 10:57:17;;;;;;;16.30;5.57;;;;;;;12.04;33.58;100576.34;6197725;22;97012;-89
2023/03/17 10:59:51;;;;;;;8.07;3.80;;;;;;;11.99;33.79;100561.59;6196736;22;96822;-88
2023/03/17 11:02:25;;;;;;;7.75;3.67;;;;;;;11.77;33.73;100537.78;6195859;22;101360;-89
2023/03/17 11:05:02;;;;;;;6.45;3.95;;;;;;;11.91;33.31;100529.44;6195859;22;100220;-92
2023/03/17 11:07:37;;;;;;;6.55;3.78;;;;;;;11.57;33.08;100478.00;6220662;22;96668;-90
2023/03/17 11:10:14;;;;;;;5.88;3.75;;;;;;;11.70;33.68;100517.88;6195718;22;96853;-89
2023/03/17 11:12:40;;;;;;;10.45;4.28;;;;;;;11.62;33.78;100503.28;6195498;22;100693;-89
2023/03/17 11:15:10;;;;;;;12.10;4.07;;;;;;;11.31;34.42;100492.09;6248448;22;97480;-89
2023/03/17 11:17:47;;;;;;;9.32;3.70;;;;;;;11.52;34.12;100514.13;6221367;22;96682;-90
2023/03/17 11:20:22;;;;;;;6.15;3.50;;;;;;;11.51;33.29;100514.19;6196097;22;96578;-89
2023/03/17 11:22:55;;;;;;;8.05;3.50;;;;;;;11.35;33.26;100513.84;6221268;22;101522;-89
2023/03/17 11:25:22;;;;;;;15.57;6.07;;;;;;;11.32;33.57;100474.53;6196308;22;100644;-89
2023/03/17 11:28:06;;;;;;;7.43;3.72;;;;;;;11.47;33.85;100502.91;6221537;22;97108;-89
2023/03/17 11:30:38;;;;;;;8.40;4.38;;;;;;;11.57;33.90;100500.81;6246407;22;96700;-90
2023/03/17 11:33:18;;;;;;;6.53;3.63;;;;;;;11.59;33.13;100499.00;6246237;22;98317;-89
2023/03/17 11:36:02;;;;;;;10.82;5.43;;;;;;;11.62;33.51;100485.75;6247497;22;98172;-89
2023/03/17 11:38:30;;;;;;;9.48;4.28;;;;;;;11.44;34.08;100474.09;6245506;22;96699;-88
2023/03/17 11:41:17;;;;;;;9.00;4.30;;;;;;;11.67;34.08;100488.22;6246064;22;96989;-89
2023/03/17 11:44:05;;;;;;;6.85;4.05;;;;;;;11.53;33.42;100468.53;6219249;22;101600;-89
2023/03/17 11:46:36;;;;;;;9.07;4.40;;;;;;;11.44;34.20;100468.00;6220401;22;100073;-90
2023/03/17 11:49:21;;;;;;;15.13;6.50;;;;;;;11.28;34.12;100441.38;6220437;22;96734;-88
2023/03/17 11:51:49;;;;;;;9.57;4.68;;;;;;;11.40;34.22;100469.00;6220028;22;96938;-90
2023/03/17 11:54:54;;;;;;;9.93;4.57;;;;;;;11.53;33.53;100484.28;6220162;22;98406;-88
2023/03/17 11:57:29;;;;;;;10.00;5.25;;;;;;;11.41;34.01;100462.84;6246798;22;101349;-90
2023/03/17 11:59:57;;;;;;;8.40;3.78;;;;;;;11.33;34.19;100465.75;6221348;22;96652;-90
2023/03/17 12:02:38;;;;;;;8.73;4.55;;;;;;;11.54;33.31;100462.34;6221583;22;96920;-90
2023/03/17 12:05:14;;;;;;;10.93;4.22;;;;;;;11.35;33.70;100437.66;6244970;22;100468;-89
2023/03/17 12:07:58;;;;;;;8.05;3.80;;;;;;;11.33;34.05;100449.97;6220238;22;99663;-89
2023/03/17 12:10:37;;;;;;;8.80;3.58;;;;;;;11.32;33.80;100435.13;6194321;22;96820;-89
2023/03/17 12:13:10;;;;;;;8.98;3.80;;;;;;;11.38;34.15;100423.53;6196260;22;96727;-89
2023/03/17 12:15:52;;;;;;;9.57;3.63;;;;;;;11.30;34.34;100429.91;6245478;22;102311;-89
2023/03/17 12:18:31;;;;;;;21.58;9.85;;;;;;;11.47;33.88;100404.81;6220301;22;98343;-90
2023/03/17 12:21:10;;;;;;;20.23;8.35;;;;;;;11.57;33.86;100411.44;6218293;22;96708;-90
2023/03/17 12:24:16;;;;;;;8.02;3.67;;;;;;;11.45;33.52;100407.47;6218921;22;96753;-90
2023/03/17 12:26:54;;;;;;;12.45;6.28;;;;;;;11.54;33.06;100388.72;6219331;22;102014;-90
2023/03/17 12:29:41;;;;;;;8.57;4.32;;;;;;;11.62;33.37;100390.25;6219079;22;101496;-90
2023/03/17 12:32:35;;;;;;;13.52;5.15;;;;;;;11.72;32.93;100402.09;6218987;22;96676;-90
2023/03/17 12:35:33;;;;;;;15.25;7.05;;;;;;;11.64;33.43;100367.38;6193662;22;96661;-89
2023/03/17 12:38:03;;;;;;;8.63;3.85;;;;;;;11.55;33.67;100379.09;6219207;22;99877;-88
2023/03/17 12:40:56;;;;;;;9.98;5.68;;;;;;;11.71;33.45;100401.25;6217423;22;100102;-89
2023/03/17 12:43:52;;;;;;;8.90;4.28;;;;;;;11.55;34.22;100389.63;6191816;22;96853;-89
2023/03/17 12:46:46;;;;;;;10.13;4.57;;;;;;;11.64;33.47;100391.91;6218530;22;96733;-88
2023/03/17 12:49:36;;;;;;;10.55;3.45;;;;;;;11.51;34.23;100386.22;6243084;22;98062;-91
2023/03/17 12:52:29;;;;;;;8.52;4.55;;;;;;;11.61;34.60;100401.69;6243100;22;101148;-89
2023/03/17 12:54:56;;;;;;;12.65;4.60;;;;;;;11.68;34.64;100397.91;6244139;22;96717;-91
2023/03/17 12:57:41;;;;;;;11.38;5.10;;;;;;;11.50;33.97;100371.38;6218422;22;96957;-89
2023/03/17 13:00:24;;;;;;;7.95;3.53;;;;;;;11.59;34.37;100391.19;6193648;22;101739;-92
2023/03/17 13:03:37;;;;;;;12.60;3.72;;;;;;;11.62;34.28;100380.56;6218423;22;101253;-89
2023/03/17 13:06:07;;;;;;;5.85;3.10;;;;;;;11.55;34.20;100374.69;6195771;22;97219;-89
2023/03/17 13:08:39;;;;;;;5.63;3.50;;;;;;;11.52;34.44;100369.56;6194778;22;96700;-89
2023/03/17 13:11:24;;;;;;;5.63;3.65;;;;;;;11.76;34.56;100382.69;6192959;22;101524;-90
2023/03/17 13:13:53;;;;;;;7.32;3.33;;;;;;;11.73;34.27;100372.28;6218815;22;100034;-89
2023/03/17 13:16:36;;;;;;;8.05;3.60;;;;;;;11.54;34.32;100375.59;6219163;22;96616;-89
2023/03/17 13:19:23;;;;;;;7.38;3.55;;;;;;;11.55;34.39;100385.22;6219339;22;96628;-89
2023/03/17 13:22:11;;;;;;;7.30;3.42;;;;;;;11.49;34.33;100367.03;6218470;22;100507;-89
2023/03/17 13:24:47;;;;;;;9.13;3.47;;;;;;;11.68;34.23;100387.38;6245380;22;98109;-95
2023/03/17 13:27:23;;;;;;;7.70;3.60;;;;;;;11.51;34.39;100362.56;6219566;22;96814;-90
2023/03/17 13:29:48;;;;;;;7.15;4.05;;;;;;;11.60;33.87;100363.13;6245141;22;96773;-89
2023/03/17 13:32:23;;;;;;;6.13;3.50;;;;;;;11.60;33.83;100363.13;6192604;22;101936;-90
2023/03/17 13:35:12;;;;;;;5.78;3.10;;;;;;;11.55;34.26;100348.41;6217563;22;101110;-89
2023/03/17 13:38:05;;;;;;;8.52;3.88;;;;;;;11.56;33.48;100354.50;6192901;22;96684;-96
2023/03/17 13:40:44;;;;;;;7.72;3.88;;;;;;;11.40;34.04;100322.66;6193690;22;97004;-91
2023/03/17 13:43:18;;;;;;;5.80;2.92;;;;;;;11.47;34.61;100339.09;6193451;22;101322;-89
2023/03/17 13:45:46;;;;;;;12.85;6.47;;;;;;;11.78;33.69;100334.38;6217787;22;101204;-90
2023/03/17 13:48:28;;;;;;;11.35;5.13;;;;;;;11.75;33.87;100337.13;6219379;22;96659;-89
2023/03/17 13:51:12;;;;;;;8.63;3.58;;;;;;;11.67;33.98;100354.13;6217896;22;96885;-91
2023/03/17 13:53:41;;;;;;;7.63;3.65;;;;;;;11.60;33.47;100352.63;6217292;22;101398;-89
2023/03/17 13:56:35;;;;;;;7.68;3.47;;;;;;;11.46;33.60;100324.22;6191663;22;100641;-89
2023/03/17 13:59:00;;;;;;;8.85;3.47;;;;;;;11.58;34.23;100342.19;6218576;22;96703;-89
2023/03/17 14:01:27;;;;;;;6.80;3.75;;;;;;;11.61;34.58;100344.69;6244982;22;97402;-89
2023/03/17 14:03:55;;;;;;;8.50;3.70;;;;;;;11.48;34.39;100325.03;6192234;22;101498;-89
2023/03/17 14:06:26;;;;;;;14.18;5.07;;;;;;;11.77;34.10;100347.56;6192429;22;100602;-90
2023/03/17 14:09:08;;;;;;;7.07;3.78;;;;;;;11.78;34.02;100344.91;6218976;22;96695;-89